sensor_id;sensor_type;location;lat;lon;timestamp;temperature;humidity
50544;DHT22;41176;44.032;20.900;2022-12-24T00:00:19;8.00;99.90
50544;DHT22;41176;44.032;20.900;2022-12-24T00:02:45;8.00;99.90
50544;DHT22;41176;44.032;20.900;2022-12-24T00:05:10;7.90;99.90
50544;DHT22;41176;44.032;20.900;2022-12-24T00:07:36;8.00;99.90
50544;DHT22;41176;44.032;20.900;2022-12-24T00:10:03;7.90;99.90
50544;DHT22;41176;44.032;20.900;2022-12-24T00:12:29;7.80;99.90
50544;DHT22;41176;44.032;20.900;2022-12-24T00:14:55;7.70;99.90
50544;DHT22;41176;44.032;20.900;2022-12-24T00:17:20;7.70;99.90
50544;DHT22;41176;44.032;20.900;2022-12-24T00:19:46;7.70;99.90
50544;DHT22;41176;44.032;20.900;2022-12-24T00:22:12;7.70;99.90
50544;DHT22;41176;44.032;20.900;2022-12-24T00:24:37;7.60;99.90
50544;DHT22;41176;44.032;20.900;2022-12-24T00:27:03;7.70;99.90
50544;DHT22;41176;44.032;20.900;2022-12-24T00:29:30;7.70;99.90
50544;DHT22;41176;44.032;20.900;2022-12-24T00:31:56;7.80;99.90
50544;DHT22;41176;44.032;20.900;2022-12-24T00:34:22;7.70;99.90
50544;DHT22;41176;44.032;20.900;2022-12-24T00:36:48;7.60;99.90
50544;DHT22;41176;44.032;20.900;2022-12-24T00:39:14;7.60;99.90
50544;DHT22;41176;44.032;20.900;2022-12-24T00:41:39;7.70;99.90
50544;DHT22;41176;44.032;20.900;2022-12-24T00:44:06;7.60;99.90
50544;DHT22;41176;44.032;20.900;2022-12-24T00:46:37;7.60;99.90
50544;DHT22;41176;44.032;20.900;2022-12-24T00:49:04;7.70;99.90
50544;DHT22;41176;44.032;20.900;2022-12-24T00:51:30;7.70;99.90
50544;DHT22;41176;44.032;20.900;2022-12-24T00:53:56;7.70;99.90
50544;DHT22;41176;44.032;20.900;2022-12-24T00:56:22;7.80;99.90
50544;DHT22;41176;44.032;20.900;2022-12-24T00:58:48;7.80;99.90
50544;DHT22;41176;44.032;20.900;2022-12-24T01:01:14;7.80;99.90
50544;DHT22;41176;44.032;20.900;2022-12-24T01:03:40;7.80;99.90
50544;DHT22;41176;44.032;20.900;2022-12-24T01:06:11;7.80;99.90
50544;DHT22;41176;44.032;20.900;2022-12-24T01:08:37;7.80;99.90
50544;DHT22;41176;44.032;20.900;2022-12-24T01:11:04;7.80;99.90
50544;DHT22;41176;44.032;20.900;2022-12-24T01:13:31;7.80;99.90
50544;DHT22;41176;44.032;20.900;2022-12-24T01:15:57;7.80;99.90
50544;DHT22;41176;44.032;20.900;2022-12-24T01:18:23;7.70;99.90
50544;DHT22;41176;44.032;20.900;2022-12-24T01:20:56;7.80;99.90
50544;DHT22;41176;44.032;20.900;2022-12-24T01:23:22;7.80;99.90
50544;DHT22;41176;44.032;20.900;2022-12-24T01:25:47;7.80;99.90
50544;DHT22;41176;44.032;20.900;2022-12-24T01:28:13;7.80;99.90
50544;DHT22;41176;44.032;20.900;2022-12-24T01:30:40;7.70;99.90
50544;DHT22;41176;44.032;20.900;2022-12-24T01:33:05;7.60;99.90
50544;DHT22;41176;44.032;20.900;2022-12-24T01:35:31;7.50;99.90
50544;DHT22;41176;44.032;20.900;2022-12-24T01:37:57;7.50;99.90
50544;DHT22;41176;44.032;20.900;2022-12-24T01:40:25;7.50;99.90
50544;DHT22;41176;44.032;20.900;2022-12-24T01:43:20;7.50;99.90
50544;DHT22;41176;44.032;20.900;2022-12-24T01:45:57;7.40;99.90
50544;DHT22;41176;44.032;20.900;2022-12-24T01:51:18;7.40;99.90
50544;DHT22;41176;44.032;20.900;2022-12-24T01:53:52;7.50;99.90
50544;DHT22;41176;44.032;20.900;2022-12-24T01:56:21;7.40;99.90
50544;DHT22;41176;44.032;20.900;2022-12-24T01:58:50;7.30;99.90
50544;DHT22;41176;44.032;20.900;2022-12-24T02:01:17;7.30;99.90
50544;DHT22;41176;44.032;20.900;2022-12-24T02:03:43;7.30;99.90
50544;DHT22;41176;44.032;20.900;2022-12-24T02:06:09;7.30;99.90
50544;DHT22;41176;44.032;20.900;2022-12-24T02:08:39;7.20;99.90
50544;DHT22;41176;44.032;20.900;2022-12-24T02:11:18;7.30;99.90
50544;DHT22;41176;44.032;20.900;2022-12-24T02:13:46;7.40;99.90
50544;DHT22;41176;44.032;20.900;2022-12-24T02:30:21;7.50;99.90
50544;DHT22;41176;44.032;20.900;2022-12-24T02:33:40;7.60;99.90
50544;DHT22;41176;44.032;20.900;2022-12-24T02:36:05;7.60;99.90
50544;DHT22;41176;44.032;20.900;2022-12-24T02:38:40;7.60;99.90
50544;DHT22;41176;44.032;20.900;2022-12-24T02:41:16;7.60;99.90
50544;DHT22;41176;44.032;20.900;2022-12-24T02:43:44;7.60;99.90
50544;DHT22;41176;44.032;20.900;2022-12-24T02:46:15;7.60;99.90
50544;DHT22;41176;44.032;20.900;2022-12-24T02:48:43;7.60;99.90
50544;DHT22;41176;44.032;20.900;2022-12-24T02:51:10;7.60;99.90
50544;DHT22;41176;44.032;20.900;2022-12-24T02:53:37;7.60;99.90
50544;DHT22;41176;44.032;20.900;2022-12-24T03:07:20;7.90;99.90
50544;DHT22;41176;44.032;20.900;2022-12-24T03:10:06;7.90;99.90
50544;DHT22;41176;44.032;20.900;2022-12-24T03:12:42;8.10;99.90
50544;DHT22;41176;44.032;20.900;2022-12-24T03:15:11;8.20;99.90
50544;DHT22;41176;44.032;20.900;2022-12-24T03:17:39;8.20;99.90
50544;DHT22;41176;44.032;20.900;2022-12-24T03:20:08;8.30;99.90
50544;DHT22;41176;44.032;20.900;2022-12-24T03:22:35;8.40;99.90
50544;DHT22;41176;44.032;20.900;2022-12-24T03:25:01;8.50;99.90
50544;DHT22;41176;44.032;20.900;2022-12-24T03:27:29;8.50;99.90
50544;DHT22;41176;44.032;20.900;2022-12-24T03:29:56;8.60;99.90
50544;DHT22;41176;44.032;20.900;2022-12-24T03:32:29;8.60;99.90
50544;DHT22;41176;44.032;20.900;2022-12-24T03:34:55;8.60;99.90
50544;DHT22;41176;44.032;20.900;2022-12-24T03:37:21;8.70;99.90
50544;DHT22;41176;44.032;20.900;2022-12-24T03:39:47;8.80;99.90
50544;DHT22;41176;44.032;20.900;2022-12-24T03:42:13;8.80;99.90
50544;DHT22;41176;44.032;20.900;2022-12-24T03:44:39;8.90;99.90
50544;DHT22;41176;44.032;20.900;2022-12-24T03:47:04;8.90;99.90
50544;DHT22;41176;44.032;20.900;2022-12-24T03:49:30;8.90;99.90
50544;DHT22;41176;44.032;20.900;2022-12-24T03:51:56;9.00;99.90
50544;DHT22;41176;44.032;20.900;2022-12-24T03:54:21;9.00;99.90
50544;DHT22;41176;44.032;20.900;2022-12-24T03:56:47;9.10;99.90
50544;DHT22;41176;44.032;20.900;2022-12-24T03:59:12;9.10;99.90
50544;DHT22;41176;44.032;20.900;2022-12-24T04:01:38;9.10;99.90
50544;DHT22;41176;44.032;20.900;2022-12-24T04:04:04;9.10;99.90
50544;DHT22;41176;44.032;20.900;2022-12-24T04:06:30;9.10;99.90
50544;DHT22;41176;44.032;20.900;2022-12-24T04:08:55;9.10;99.90
50544;DHT22;41176;44.032;20.900;2022-12-24T04:11:23;9.20;99.90
50544;DHT22;41176;44.032;20.900;2022-12-24T04:13:49;9.20;99.90
50544;DHT22;41176;44.032;20.900;2022-12-24T04:16:15;9.30;99.90
50544;DHT22;41176;44.032;20.900;2022-12-24T04:18:41;9.30;99.90
50544;DHT22;41176;44.032;20.900;2022-12-24T04:21:07;9.40;99.90
50544;DHT22;41176;44.032;20.900;2022-12-24T04:23:35;9.40;99.90
50544;DHT22;41176;44.032;20.900;2022-12-24T04:26:06;9.40;99.90
50544;DHT22;41176;44.032;20.900;2022-12-24T04:28:32;9.40;99.90
50544;DHT22;41176;44.032;20.900;2022-12-24T04:30:58;9.40;99.90
50544;DHT22;41176;44.032;20.900;2022-12-24T04:33:25;9.40;99.90
50544;DHT22;41176;44.032;20.900;2022-12-24T04:35:50;9.30;99.90
50544;DHT22;41176;44.032;20.900;2022-12-24T04:38:16;9.30;99.90
50544;DHT22;41176;44.032;20.900;2022-12-24T04:40:43;9.30;99.90
50544;DHT22;41176;44.032;20.900;2022-12-24T04:43:09;9.30;99.90
50544;DHT22;41176;44.032;20.900;2022-12-24T04:45:34;9.30;99.90
50544;DHT22;41176;44.032;20.900;2022-12-24T04:48:00;9.30;99.90
50544;DHT22;41176;44.032;20.900;2022-12-24T04:50:26;9.30;99.90
50544;DHT22;41176;44.032;20.900;2022-12-24T04:52:51;9.30;99.90
50544;DHT22;41176;44.032;20.900;2022-12-24T04:55:17;9.30;99.90
50544;DHT22;41176;44.032;20.900;2022-12-24T04:57:43;9.40;99.90
50544;DHT22;41176;44.032;20.900;2022-12-24T05:00:09;9.30;99.90
50544;DHT22;41176;44.032;20.900;2022-12-24T05:02:35;9.20;99.90
50544;DHT22;41176;44.032;20.900;2022-12-24T05:05:01;9.20;99.90
50544;DHT22;41176;44.032;20.900;2022-12-24T05:07:27;9.30;99.90
50544;DHT22;41176;44.032;20.900;2022-12-24T05:09:53;9.30;99.90
50544;DHT22;41176;44.032;20.900;2022-12-24T05:12:18;9.30;99.90
50544;DHT22;41176;44.032;20.900;2022-12-24T05:14:44;9.30;99.90
50544;DHT22;41176;44.032;20.900;2022-12-24T05:17:10;9.30;99.90
50544;DHT22;41176;44.032;20.900;2022-12-24T05:19:35;9.30;99.90
50544;DHT22;41176;44.032;20.900;2022-12-24T05:22:01;9.20;99.90
50544;DHT22;41176;44.032;20.900;2022-12-24T05:24:49;9.20;99.90
50544;DHT22;41176;44.032;20.900;2022-12-24T05:27:34;9.20;99.90
50544;DHT22;41176;44.032;20.900;2022-12-24T05:30:00;9.10;99.90
50544;DHT22;41176;44.032;20.900;2022-12-24T05:32:26;9.10;99.90
50544;DHT22;41176;44.032;20.900;2022-12-24T05:34:53;9.10;99.90
50544;DHT22;41176;44.032;20.900;2022-12-24T05:37:18;9.10;99.90
50544;DHT22;41176;44.032;20.900;2022-12-24T05:39:44;9.10;99.90
50544;DHT22;41176;44.032;20.900;2022-12-24T05:42:09;9.10;99.90
50544;DHT22;41176;44.032;20.900;2022-12-24T05:44:35;9.10;99.90
50544;DHT22;41176;44.032;20.900;2022-12-24T05:47:01;9.10;99.90
50544;DHT22;41176;44.032;20.900;2022-12-24T05:49:27;9.00;99.90
50544;DHT22;41176;44.032;20.900;2022-12-24T05:51:53;9.00;99.90
50544;DHT22;41176;44.032;20.900;2022-12-24T05:54:19;9.10;99.90
50544;DHT22;41176;44.032;20.900;2022-12-24T05:56:44;9.10;99.90
50544;DHT22;41176;44.032;20.900;2022-12-24T05:59:10;9.10;99.90
50544;DHT22;41176;44.032;20.900;2022-12-24T06:01:36;9.10;99.90
50544;DHT22;41176;44.032;20.900;2022-12-24T06:04:01;9.00;99.90
50544;DHT22;41176;44.032;20.900;2022-12-24T06:06:28;9.10;99.90
50544;DHT22;41176;44.032;20.900;2022-12-24T06:08:54;9.10;99.90
50544;DHT22;41176;44.032;20.900;2022-12-24T06:11:25;9.00;99.90
50544;DHT22;41176;44.032;20.900;2022-12-24T06:13:52;8.90;99.90
50544;DHT22;41176;44.032;20.900;2022-12-24T06:16:19;8.80;99.90
50544;DHT22;41176;44.032;20.900;2022-12-24T06:18:45;8.80;99.90
50544;DHT22;41176;44.032;20.900;2022-12-24T06:21:11;8.80;99.90
50544;DHT22;41176;44.032;20.900;2022-12-24T06:23:39;8.70;99.90
50544;DHT22;41176;44.032;20.900;2022-12-24T06:26:07;8.60;99.90
50544;DHT22;41176;44.032;20.900;2022-12-24T06:28:35;8.70;99.90
50544;DHT22;41176;44.032;20.900;2022-12-24T06:31:01;8.70;99.90
50544;DHT22;41176;44.032;20.900;2022-12-24T06:33:28;8.70;99.90
50544;DHT22;41176;44.032;20.900;2022-12-24T06:35:54;8.80;99.90
50544;DHT22;41176;44.032;20.900;2022-12-24T06:38:19;8.80;99.90
50544;DHT22;41176;44.032;20.900;2022-12-24T06:40:45;8.80;99.90
50544;DHT22;41176;44.032;20.900;2022-12-24T06:43:12;8.80;99.90
50544;DHT22;41176;44.032;20.900;2022-12-24T06:45:38;8.80;99.90
50544;DHT22;41176;44.032;20.900;2022-12-24T06:48:04;8.80;99.90
50544;DHT22;41176;44.032;20.900;2022-12-24T06:50:32;8.80;99.90
50544;DHT22;41176;44.032;20.900;2022-12-24T06:52:58;8.80;99.90
50544;DHT22;41176;44.032;20.900;2022-12-24T06:55:23;8.80;99.90
50544;DHT22;41176;44.032;20.900;2022-12-24T06:57:49;8.80;99.90
50544;DHT22;41176;44.032;20.900;2022-12-24T07:00:15;8.70;99.90
50544;DHT22;41176;44.032;20.900;2022-12-24T07:02:41;8.70;99.90
50544;DHT22;41176;44.032;20.900;2022-12-24T07:05:09;8.80;99.90
50544;DHT22;41176;44.032;20.900;2022-12-24T07:07:40;8.90;99.90
50544;DHT22;41176;44.032;20.900;2022-12-24T07:10:07;8.80;99.90
50544;DHT22;41176;44.032;20.900;2022-12-24T07:12:33;8.80;99.90
50544;DHT22;41176;44.032;20.900;2022-12-24T07:14:59;8.80;99.90
50544;DHT22;41176;44.032;20.900;2022-12-24T07:17:24;8.90;99.90
50544;DHT22;41176;44.032;20.900;2022-12-24T07:19:50;9.00;99.90
50544;DHT22;41176;44.032;20.900;2022-12-24T07:22:15;9.10;99.90
50544;DHT22;41176;44.032;20.900;2022-12-24T07:24:41;9.20;99.90
50544;DHT22;41176;44.032;20.900;2022-12-24T07:27:07;9.20;99.90
50544;DHT22;41176;44.032;20.900;2022-12-24T07:29:33;9.20;99.90
50544;DHT22;41176;44.032;20.900;2022-12-24T07:31:59;9.30;99.90
50544;DHT22;41176;44.032;20.900;2022-12-24T07:34:25;9.30;99.90
50544;DHT22;41176;44.032;20.900;2022-12-24T07:36:51;9.40;99.90
50544;DHT22;41176;44.032;20.900;2022-12-24T07:39:16;9.40;99.90
50544;DHT22;41176;44.032;20.900;2022-12-24T07:41:42;9.50;99.90
50544;DHT22;41176;44.032;20.900;2022-12-24T07:44:14;9.60;99.90
50544;DHT22;41176;44.032;20.900;2022-12-24T07:46:39;9.70;99.90
50544;DHT22;41176;44.032;20.900;2022-12-24T07:49:06;9.80;99.90
50544;DHT22;41176;44.032;20.900;2022-12-24T07:51:32;9.90;99.90
50544;DHT22;41176;44.032;20.900;2022-12-24T07:53:57;10.00;99.90
50544;DHT22;41176;44.032;20.900;2022-12-24T07:56:23;10.00;99.90
50544;DHT22;41176;44.032;20.900;2022-12-24T07:58:50;10.00;99.90
50544;DHT22;41176;44.032;20.900;2022-12-24T08:01:16;10.10;99.90
50544;DHT22;41176;44.032;20.900;2022-12-24T08:03:42;10.20;99.90
50544;DHT22;41176;44.032;20.900;2022-12-24T08:06:08;10.30;99.90
50544;DHT22;41176;44.032;20.900;2022-12-24T08:08:35;10.40;99.90
50544;DHT22;41176;44.032;20.900;2022-12-24T08:11:02;10.40;99.90
50544;DHT22;41176;44.032;20.900;2022-12-24T08:13:29;10.30;99.90
50544;DHT22;41176;44.032;20.900;2022-12-24T08:15:54;10.40;99.90
50544;DHT22;41176;44.032;20.900;2022-12-24T08:18:20;10.40;99.90
50544;DHT22;41176;44.032;20.900;2022-12-24T08:20:46;10.30;99.90
50544;DHT22;41176;44.032;20.900;2022-12-24T08:23:12;10.30;99.90
50544;DHT22;41176;44.032;20.900;2022-12-24T08:25:42;10.30;99.90
50544;DHT22;41176;44.032;20.900;2022-12-24T08:28:07;10.30;99.90
50544;DHT22;41176;44.032;20.900;2022-12-24T08:30:33;10.10;99.90
50544;DHT22;41176;44.032;20.900;2022-12-24T08:32:59;10.10;99.90
50544;DHT22;41176;44.032;20.900;2022-12-24T08:35:25;10.00;99.90
50544;DHT22;41176;44.032;20.900;2022-12-24T08:37:50;9.90;99.90
50544;DHT22;41176;44.032;20.900;2022-12-24T08:40:16;9.90;99.90
50544;DHT22;41176;44.032;20.900;2022-12-24T08:42:42;9.80;99.90
50544;DHT22;41176;44.032;20.900;2022-12-24T08:45:08;9.70;99.90
50544;DHT22;41176;44.032;20.900;2022-12-24T08:47:36;9.60;99.90
50544;DHT22;41176;44.032;20.900;2022-12-24T08:50:03;9.60;99.90
50544;DHT22;41176;44.032;20.900;2022-12-24T08:52:29;9.60;99.90
50544;DHT22;41176;44.032;20.900;2022-12-24T08:54:54;9.50;99.90
50544;DHT22;41176;44.032;20.900;2022-12-24T08:57:20;9.50;99.90
50544;DHT22;41176;44.032;20.900;2022-12-24T08:59:46;9.50;99.90
50544;DHT22;41176;44.032;20.900;2022-12-24T09:02:11;9.40;99.90
50544;DHT22;41176;44.032;20.900;2022-12-24T09:04:38;9.30;99.90
50544;DHT22;41176;44.032;20.900;2022-12-24T09:07:07;9.30;99.90
50544;DHT22;41176;44.032;20.900;2022-12-24T09:09:33;9.20;99.90
50544;DHT22;41176;44.032;20.900;2022-12-24T09:11:59;9.20;99.90
50544;DHT22;41176;44.032;20.900;2022-12-24T09:14:25;9.30;99.90
50544;DHT22;41176;44.032;20.900;2022-12-24T09:16:50;9.20;99.90
50544;DHT22;41176;44.032;20.900;2022-12-24T09:19:16;9.10;99.90
50544;DHT22;41176;44.032;20.900;2022-12-24T09:21:42;9.10;99.90
50544;DHT22;41176;44.032;20.900;2022-12-24T09:24:07;9.20;99.90
50544;DHT22;41176;44.032;20.900;2022-12-24T09:26:33;9.20;99.90
50544;DHT22;41176;44.032;20.900;2022-12-24T09:29:01;9.30;99.90
50544;DHT22;41176;44.032;20.900;2022-12-24T09:31:27;9.30;99.90
50544;DHT22;41176;44.032;20.900;2022-12-24T09:33:54;9.30;99.90
50544;DHT22;41176;44.032;20.900;2022-12-24T09:36:20;9.30;99.90
50544;DHT22;41176;44.032;20.900;2022-12-24T09:38:46;9.30;99.90
50544;DHT22;41176;44.032;20.900;2022-12-24T09:46:46;9.50;99.90
50544;DHT22;41176;44.032;20.900;2022-12-24T09:49:19;9.50;99.90
50544;DHT22;41176;44.032;20.900;2022-12-24T09:52:00;9.60;99.90
50544;DHT22;41176;44.032;20.900;2022-12-24T09:54:30;9.70;99.90
50544;DHT22;41176;44.032;20.900;2022-12-24T09:57:00;9.80;99.90
50544;DHT22;41176;44.032;20.900;2022-12-24T09:59:44;9.80;99.90
50544;DHT22;41176;44.032;20.900;2022-12-24T10:02:14;9.90;99.90
50544;DHT22;41176;44.032;20.900;2022-12-24T10:04:41;9.90;99.90
50544;DHT22;41176;44.032;20.900;2022-12-24T10:07:28;9.90;99.90
50544;DHT22;41176;44.032;20.900;2022-12-24T10:15:30;9.90;99.90
50544;DHT22;41176;44.032;20.900;2022-12-24T10:21:15;9.90;99.90
50544;DHT22;41176;44.032;20.900;2022-12-24T10:26:22;9.80;99.90
50544;DHT22;41176;44.032;20.900;2022-12-24T10:28:56;9.80;99.90
50544;DHT22;41176;44.032;20.900;2022-12-24T10:31:25;9.80;99.90
50544;DHT22;41176;44.032;20.900;2022-12-24T10:33:57;9.70;99.90
50544;DHT22;41176;44.032;20.900;2022-12-24T10:36:28;9.70;99.90
50544;DHT22;41176;44.032;20.900;2022-12-24T10:38:54;9.80;99.90
50544;DHT22;41176;44.032;20.900;2022-12-24T10:41:20;9.80;99.90
50544;DHT22;41176;44.032;20.900;2022-12-24T10:43:47;9.80;99.90
50544;DHT22;41176;44.032;20.900;2022-12-24T10:46:35;9.70;99.90
50544;DHT22;41176;44.032;20.900;2022-12-24T10:49:10;9.70;99.90
50544;DHT22;41176;44.032;20.900;2022-12-24T10:54:20;9.80;99.90
50544;DHT22;41176;44.032;20.900;2022-12-24T10:56:49;9.70;99.90
50544;DHT22;41176;44.032;20.900;2022-12-24T10:59:28;9.80;99.90
50544;DHT22;41176;44.032;20.900;2022-12-24T11:01:59;9.80;99.90
50544;DHT22;41176;44.032;20.900;2022-12-24T11:04:30;9.80;99.90
50544;DHT22;41176;44.032;20.900;2022-12-24T11:07:03;9.80;99.90
50544;DHT22;41176;44.032;20.900;2022-12-24T11:11:58;9.80;99.90
50544;DHT22;41176;44.032;20.900;2022-12-24T11:14:28;9.80;99.90
50544;DHT22;41176;44.032;20.900;2022-12-24T11:16:57;9.90;99.90
50544;DHT22;41176;44.032;20.900;2022-12-24T11:19:34;9.90;99.90
50544;DHT22;41176;44.032;20.900;2022-12-24T11:22:07;9.90;99.90
50544;DHT22;41176;44.032;20.900;2022-12-24T11:24:41;10.00;99.90
50544;DHT22;41176;44.032;20.900;2022-12-24T11:32:40;10.20;99.90
50544;DHT22;41176;44.032;20.900;2022-12-24T11:35:07;10.10;99.90
50544;DHT22;41176;44.032;20.900;2022-12-24T11:37:33;10.00;99.90
50544;DHT22;41176;44.032;20.900;2022-12-24T11:40:00;10.00;99.90
50544;DHT22;41176;44.032;20.900;2022-12-24T11:42:33;10.10;99.90
50544;DHT22;41176;44.032;20.900;2022-12-24T11:45:03;10.10;99.90
50544;DHT22;41176;44.032;20.900;2022-12-24T11:47:35;10.20;99.90
50544;DHT22;41176;44.032;20.900;2022-12-24T11:50:21;10.10;99.90
50544;DHT22;41176;44.032;20.900;2022-12-24T11:52:51;10.10;99.90
50544;DHT22;41176;44.032;20.900;2022-12-24T11:55:35;10.10;99.90
50544;DHT22;41176;44.032;20.900;2022-12-24T12:00:40;10.10;99.90
50544;DHT22;41176;44.032;20.900;2022-12-24T12:03:26;10.10;99.90
50544;DHT22;41176;44.032;20.900;2022-12-24T12:05:55;10.10;99.90
50544;DHT22;41176;44.032;20.900;2022-12-24T12:08:24;10.20;99.90
50544;DHT22;41176;44.032;20.900;2022-12-24T12:10:52;10.30;99.90
50544;DHT22;41176;44.032;20.900;2022-12-24T12:13:28;10.30;99.90
50544;DHT22;41176;44.032;20.900;2022-12-24T12:16:27;10.40;99.90
50544;DHT22;41176;44.032;20.900;2022-12-24T12:19:15;10.40;99.90
50544;DHT22;41176;44.032;20.900;2022-12-24T12:21:45;10.40;99.90
50544;DHT22;41176;44.032;20.900;2022-12-24T12:24:19;10.40;99.90
50544;DHT22;41176;44.032;20.900;2022-12-24T12:26:47;10.40;99.90
50544;DHT22;41176;44.032;20.900;2022-12-24T12:29:24;10.40;99.90
50544;DHT22;41176;44.032;20.900;2022-12-24T12:32:21;10.40;99.90
50544;DHT22;41176;44.032;20.900;2022-12-24T12:37:38;10.50;99.90
50544;DHT22;41176;44.032;20.900;2022-12-24T12:40:14;10.60;99.90
50544;DHT22;41176;44.032;20.900;2022-12-24T12:42:59;10.60;99.90
50544;DHT22;41176;44.032;20.900;2022-12-24T12:48:19;10.50;99.90
50544;DHT22;41176;44.032;20.900;2022-12-24T12:56:22;10.50;99.90
50544;DHT22;41176;44.032;20.900;2022-12-24T12:59:20;10.50;99.90
50544;DHT22;41176;44.032;20.900;2022-12-24T13:15:49;10.50;99.90
50544;DHT22;41176;44.032;20.900;2022-12-24T13:20:48;10.50;99.90
50544;DHT22;41176;44.032;20.900;2022-12-24T13:23:19;10.50;99.90
50544;DHT22;41176;44.032;20.900;2022-12-24T13:25:48;10.40;99.90
50544;DHT22;41176;44.032;20.900;2022-12-24T13:30:47;10.40;99.90
50544;DHT22;41176;44.032;20.900;2022-12-24T13:36:09;10.40;99.90
50544;DHT22;41176;44.032;20.900;2022-12-24T13:49:37;10.70;99.90
50544;DHT22;41176;44.032;20.900;2022-12-24T13:52:25;10.70;99.90
50544;DHT22;41176;44.032;20.900;2022-12-24T13:57:38;10.60;99.90
50544;DHT22;41176;44.032;20.900;2022-12-24T14:02:43;10.60;99.90
50544;DHT22;41176;44.032;20.900;2022-12-24T14:05:17;10.60;99.90
50544;DHT22;41176;44.032;20.900;2022-12-24T14:07:48;10.60;99.90
50544;DHT22;41176;44.032;20.900;2022-12-24T14:10:39;10.60;99.90
50544;DHT22;41176;44.032;20.900;2022-12-24T14:13:06;10.50;99.90
50544;DHT22;41176;44.032;20.900;2022-12-24T14:18:22;10.50;99.90
50544;DHT22;41176;44.032;20.900;2022-12-24T14:20:53;10.50;99.90
50544;DHT22;41176;44.032;20.900;2022-12-24T14:23:42;10.40;99.90
50544;DHT22;41176;44.032;20.900;2022-12-24T14:26:14;10.40;99.90
50544;DHT22;41176;44.032;20.900;2022-12-24T14:28:45;10.40;99.90
50544;DHT22;41176;44.032;20.900;2022-12-24T14:31:16;10.40;99.90
50544;DHT22;41176;44.032;20.900;2022-12-24T14:33:43;10.30;99.90
50544;DHT22;41176;44.032;20.900;2022-12-24T14:36:09;10.30;99.90
50544;DHT22;41176;44.032;20.900;2022-12-24T14:38:36;10.30;99.90
50544;DHT22;41176;44.032;20.900;2022-12-24T14:49:06;10.10;99.90
50544;DHT22;41176;44.032;20.900;2022-12-24T14:54:30;10.00;99.90
50544;DHT22;41176;44.032;20.900;2022-12-24T15:05:23;10.00;99.90
50544;DHT22;41176;44.032;20.900;2022-12-24T15:07:57;9.90;99.90
50544;DHT22;41176;44.032;20.900;2022-12-24T15:10:31;9.80;99.90
50544;DHT22;41176;44.032;20.900;2022-12-24T15:15:58;9.90;99.90
50544;DHT22;41176;44.032;20.900;2022-12-24T15:18:28;9.90;99.90
50544;DHT22;41176;44.032;20.900;2022-12-24T15:21:04;9.80;99.90
50544;DHT22;41176;44.032;20.900;2022-12-24T15:23:35;9.80;99.90
50544;DHT22;41176;44.032;20.900;2022-12-24T15:26:16;9.80;99.90
50544;DHT22;41176;44.032;20.900;2022-12-24T15:28:43;9.80;99.90
50544;DHT22;41176;44.032;20.900;2022-12-24T15:31:16;9.80;99.90
50544;DHT22;41176;44.032;20.900;2022-12-24T15:33:47;9.80;99.90
50544;DHT22;41176;44.032;20.900;2022-12-24T15:36:15;9.80;99.90
50544;DHT22;41176;44.032;20.900;2022-12-24T15:38:43;9.70;99.90
50544;DHT22;41176;44.032;20.900;2022-12-24T15:41:19;9.70;99.90
50544;DHT22;41176;44.032;20.900;2022-12-24T15:43:47;9.70;99.90
50544;DHT22;41176;44.032;20.900;2022-12-24T15:46:26;9.70;99.90
50544;DHT22;41176;44.032;20.900;2022-12-24T15:48:54;9.70;99.90
50544;DHT22;41176;44.032;20.900;2022-12-24T15:51:26;9.80;99.90
50544;DHT22;41176;44.032;20.900;2022-12-24T15:54:00;9.80;99.90
50544;DHT22;41176;44.032;20.900;2022-12-24T15:56:42;9.80;99.90
50544;DHT22;41176;44.032;20.900;2022-12-24T16:01:41;9.80;99.90
50544;DHT22;41176;44.032;20.900;2022-12-24T16:04:27;9.80;99.90
50544;DHT22;41176;44.032;20.900;2022-12-24T16:07:02;9.90;99.90
50544;DHT22;41176;44.032;20.900;2022-12-24T16:12:02;9.90;99.90
50544;DHT22;41176;44.032;20.900;2022-12-24T16:14:32;9.90;99.90
50544;DHT22;41176;44.032;20.900;2022-12-24T16:16:57;9.90;99.90
50544;DHT22;41176;44.032;20.900;2022-12-24T16:19:26;9.90;99.90
50544;DHT22;41176;44.032;20.900;2022-12-24T16:21:54;9.90;99.90
50544;DHT22;41176;44.032;20.900;2022-12-24T16:24:28;9.90;99.90
50544;DHT22;41176;44.032;20.900;2022-12-24T16:26:56;10.00;99.90
50544;DHT22;41176;44.032;20.900;2022-12-24T16:29:22;10.00;99.90
50544;DHT22;41176;44.032;20.900;2022-12-24T16:31:55;9.90;99.90
50544;DHT22;41176;44.032;20.900;2022-12-24T16:34:27;9.90;99.90
50544;DHT22;41176;44.032;20.900;2022-12-24T16:36:53;9.90;99.90
50544;DHT22;41176;44.032;20.900;2022-12-24T16:41:56;10.00;99.90
50544;DHT22;41176;44.032;20.900;2022-12-24T16:44:41;10.00;99.90
50544;DHT22;41176;44.032;20.900;2022-12-24T16:47:20;10.10;99.90
50544;DHT22;41176;44.032;20.900;2022-12-24T16:49:46;10.10;99.90
50544;DHT22;41176;44.032;20.900;2022-12-24T16:52:20;10.10;99.90
50544;DHT22;41176;44.032;20.900;2022-12-24T16:54:47;10.20;99.90
50544;DHT22;41176;44.032;20.900;2022-12-24T16:57:13;10.20;99.90
50544;DHT22;41176;44.032;20.900;2022-12-24T16:59:39;10.20;99.90
50544;DHT22;41176;44.032;20.900;2022-12-24T17:02:06;10.10;99.90
50544;DHT22;41176;44.032;20.900;2022-12-24T17:04:32;10.10;99.90
50544;DHT22;41176;44.032;20.900;2022-12-24T17:06:58;10.10;99.90
50544;DHT22;41176;44.032;20.900;2022-12-24T17:09:24;10.00;99.90
50544;DHT22;41176;44.032;20.900;2022-12-24T17:11:50;10.00;99.90
50544;DHT22;41176;44.032;20.900;2022-12-24T17:14:16;10.00;99.90
50544;DHT22;41176;44.032;20.900;2022-12-24T17:16:41;10.00;99.90
50544;DHT22;41176;44.032;20.900;2022-12-24T17:19:07;10.00;99.90
50544;DHT22;41176;44.032;20.900;2022-12-24T17:21:34;10.00;99.90
50544;DHT22;41176;44.032;20.900;2022-12-24T17:23:59;10.00;99.90
50544;DHT22;41176;44.032;20.900;2022-12-24T17:26:25;10.00;99.90
50544;DHT22;41176;44.032;20.900;2022-12-24T17:28:55;10.10;99.90
50544;DHT22;41176;44.032;20.900;2022-12-24T17:31:22;10.10;99.90
50544;DHT22;41176;44.032;20.900;2022-12-24T17:33:51;10.10;99.90
50544;DHT22;41176;44.032;20.900;2022-12-24T17:36:18;10.00;99.90
50544;DHT22;41176;44.032;20.900;2022-12-24T17:38:44;10.10;99.90
50544;DHT22;41176;44.032;20.900;2022-12-24T17:41:11;10.20;99.90
50544;DHT22;41176;44.032;20.900;2022-12-24T17:43:38;10.20;99.90
50544;DHT22;41176;44.032;20.900;2022-12-24T17:46:08;10.40;99.90
50544;DHT22;41176;44.032;20.900;2022-12-24T17:48:35;10.40;99.90
50544;DHT22;41176;44.032;20.900;2022-12-24T17:51:09;10.40;99.90
50544;DHT22;41176;44.032;20.900;2022-12-24T17:53:37;10.40;99.90
50544;DHT22;41176;44.032;20.900;2022-12-24T17:56:04;10.40;99.90
50544;DHT22;41176;44.032;20.900;2022-12-24T17:58:30;10.40;99.90